Time;durP1;ratioP1;P1;durP2;ratioP2;P2;SDS_P1;SDS_P2;PMS_P1;PMS_P2;Temp;Humidity;BMP_temperature;BMP_pressure;BME280_temperature;BME280_humidity;BME280_pressure;Samples;Min_cycle;Max_cycle;Signal;HPM_P1;HPM_P2
2021/08/28 00:02:02;;;;;;;24.70;9.98;;;;;;;13.19;100.00;99825.12;1704688;84;21256;-77
2021/08/28 00:04:30;;;;;;;16.10;9.35;;;;;;;13.17;100.00;99825.66;1704432;84;21062;-77
2021/08/28 00:06:57;;;;;;;18.48;9.53;;;;;;;13.17;100.00;99824.34;1704254;84;21637;-76
2021/08/28 00:09:25;;;;;;;16.90;9.80;;;;;;;13.16;100.00;99817.36;1704592;83;21050;-77
2021/08/28 00:11:53;;;;;;;19.70;8.55;;;;;;;13.18;100.00;99820.78;1684771;84;21057;-76
2021/08/28 00:14:20;;;;;;;17.57;9.05;;;;;;;13.20;100.00;99816.27;1704935;84;21097;-76
2021/08/28 00:16:48;;;;;;;17.25;8.45;;;;;;;13.20;100.00;99820.23;1704815;84;21057;-78
2021/08/28 00:19:15;;;;;;;12.63;7.50;;;;;;;13.21;100.00;99823.25;1705014;84;21144;-78
2021/08/28 00:21:45;;;;;;;19.02;10.53;;;;;;;13.21;100.00;99819.28;1704988;84;21057;-76
2021/08/28 00:24:14;;;;;;;22.93;10.28;;;;;;;13.23;100.00;99827.99;1705289;84;21529;-77
2021/08/28 00:26:40;;;;;;;20.57;11.25;;;;;;;13.22;100.00;99819.66;1705031;84;21104;-79
2021/08/28 00:29:08;;;;;;;25.35;12.58;;;;;;;13.22;100.00;99815.69;1705367;84;21058;-77
2021/08/28 00:31:35;;;;;;;21.77;12.78;;;;;;;13.22;100.00;99820.98;1704961;84;21162;-78
2021/08/28 00:34:03;;;;;;;22.22;11.28;;;;;;;13.23;100.00;99817.89;1704772;84;21061;-77
2021/08/28 00:36:31;;;;;;;29.10;14.05;;;;;;;13.27;100.00;99818.56;1704850;84;21006;-78
2021/08/28 00:38:58;;;;;;;15.03;9.23;;;;;;;13.28;100.00;99819.84;1704754;84;21035;-76
2021/08/28 00:41:24;;;;;;;21.95;12.82;;;;;;;13.32;100.00;99825.81;1704417;84;21121;-76
2021/08/28 00:43:51;;;;;;;28.17;12.47;;;;;;;13.34;100.00;99822.62;1704437;84;21215;-76
2021/08/28 00:46:17;;;;;;;26.87;13.22;;;;;;;13.34;100.00;99819.98;1704855;84;21570;-77
2021/08/28 00:48:45;;;;;;;23.80;12.78;;;;;;;13.36;100.00;99819.43;1717394;83;21101;-78
2021/08/28 00:51:13;;;;;;;21.55;11.73;;;;;;;13.39;100.00;99829.87;1718392;83;21050;-78
2021/08/28 00:53:41;;;;;;;21.68;12.37;;;;;;;13.40;100.00;99819.66;1718184;83;21136;-78
2021/08/28 00:56:08;;;;;;;25.65;13.93;;;;;;;13.42;100.00;99823.08;1746456;82;22106;-78
2021/08/28 00:58:34;;;;;;;16.95;10.58;;;;;;;13.43;100.00;99813.75;1748633;82;21369;-77
2021/08/28 01:01:09;;;;;;;21.23;11.57;;;;;;;13.44;100.00;99815.92;1748344;82;21037;-78
2021/08/28 01:03:36;;;;;;;18.60;9.25;;;;;;;13.44;100.00;99817.25;1749739;82;21069;-77
2021/08/28 01:06:23;;;;;;;20.72;9.83;;;;;;;13.43;100.00;99816.39;1698250;82;21089;-77
2021/08/28 01:09:12;;;;;;;21.50;11.60;;;;;;;13.44;100.00;99818.56;1737669;82;21723;-77
2021/08/28 01:11:53;;;;;;;19.30;10.75;;;;;;;13.43;100.00;99819.48;1741351;82;21101;-76
2021/08/28 01:14:29;;;;;;;26.10;11.70;;;;;;;13.41;100.00;99806.36;1747763;82;21508;-78
2021/08/28 01:17:04;;;;;;;27.65;12.88;;;;;;;13.36;100.00;99804.88;1748158;82;21081;-77
2021/08/28 01:20:04;;;;;;;20.12;12.25;;;;;;;13.34;100.00;99801.47;1748507;82;21592;-78
2021/08/28 01:22:50;;;;;;;17.67;10.72;;;;;;;13.34;100.00;99803.67;1748289;82;21156;-79
2021/08/28 01:25:22;;;;;;;21.42;12.98;;;;;;;13.37;100.00;99807.94;1745327;82;21041;-77
2021/08/28 01:28:03;;;;;;;21.10;11.25;;;;;;;13.40;100.00;99806.44;1721842;82;21105;-77
2021/08/28 01:30:33;;;;;;;19.30;8.93;;;;;;;13.43;100.00;99809.78;1743487;82;20998;-78
2021/08/28 01:33:01;;;;;;;27.32;13.50;;;;;;;13.46;100.00;99807.44;1750075;82;21836;-77
2021/08/28 01:35:28;;;;;;;26.23;12.58;;;;;;;13.48;100.00;99806.89;1724956;82;22021;-80
2021/08/28 01:37:56;;;;;;;26.10;14.63;;;;;;;13.47;100.00;99799.03;1723578;82;21546;-77
2021/08/28 01:40:29;;;;;;;23.95;14.47;;;;;;;13.46;100.00;99795.98;1750728;82;20974;-79
2021/08/28 01:42:57;;;;;;;24.23;13.43;;;;;;;13.48;100.00;99800.28;1752879;79;20892;-77
2021/08/28 01:45:26;;;;;;;23.45;13.85;;;;;;;13.50;100.00;99793.08;1753137;76;21017;-78
2021/08/28 01:47:54;;;;;;;23.35;14.75;;;;;;;13.55;100.00;99792.39;1749804;82;21121;-77
2021/08/28 01:50:23;;;;;;;20.97;13.18;;;;;;;13.58;100.00;99794.85;1748450;82;21054;-78
2021/08/28 01:52:52;;;;;;;24.90;12.60;;;;;;;13.65;100.00;99801.98;1748308;82;21115;-78
2021/08/28 01:55:20;;;;;;;18.48;8.88;;;;;;;13.71;100.00;99810.05;1729822;82;22316;-79
2021/08/28 01:57:49;;;;;;;24.90;11.97;;;;;;;13.75;100.00;99811.59;1716602;83;21656;-76
2021/08/28 02:00:27;;;;;;;19.92;12.68;;;;;;;13.78;100.00;99813.61;1680706;85;21610;-76
2021/08/28 02:02:55;;;;;;;13.80;9.05;;;;;;;13.81;100.00;99816.55;1718337;83;21013;-77
2021/08/28 02:05:23;;;;;;;22.25;13.35;;;;;;;13.81;100.00;99816.55;1718726;83;21049;-78
2021/08/28 02:08:04;;;;;;;17.17;10.88;;;;;;;13.83;100.00;99815.53;1717941;83;21045;-78
2021/08/28 02:10:50;;;;;;;16.48;10.40;;;;;;;13.83;100.00;99818.66;1717994;83;21088;-77
2021/08/28 02:13:33;;;;;;;23.27;12.93;;;;;;;13.84;100.00;99814.58;1717679;83;21560;-77
2021/08/28 02:16:11;;;;;;;22.07;13.38;;;;;;;13.85;100.00;99808.36;1705907;83;21144;-77
2021/08/28 02:18:52;;;;;;;26.02;16.12;;;;;;;13.85;100.00;99795.60;1718028;83;21672;-78
2021/08/28 02:21:21;;;;;;;29.67;14.98;;;;;;;13.87;100.00;99785.75;1715714;83;21739;-77
2021/08/28 02:23:59;;;;;;;28.35;17.52;;;;;;;13.90;100.00;99778.98;1718284;83;21077;-76
2021/08/28 02:26:40;;;;;;;30.62;20.35;;;;;;;13.92;100.00;99771.81;1713629;83;21484;-76
2021/08/28 02:29:18;;;;;;;36.55;22.13;;;;;;;13.96;100.00;99776.45;1718234;83;21084;-76
2021/08/28 02:31:48;;;;;;;24.47;17.25;;;;;;;14.00;100.00;99766.92;1718474;83;21132;-77
2021/08/28 02:34:18;;;;;;;31.48;21.17;;;;;;;14.08;100.00;99768.27;1718475;83;21654;-77
2021/08/28 02:36:45;;;;;;;27.27;20.55;;;;;;;14.14;100.00;99773.23;1668975;83;21140;-79
2021/08/28 02:39:16;;;;;;;22.00;14.45;;;;;;;14.18;100.00;99769.47;1718506;83;21234;-78
2021/08/28 02:41:44;;;;;;;24.60;17.48;;;;;;;14.24;100.00;99771.74;1692540;83;21053;-79
2021/08/28 02:44:12;;;;;;;28.32;18.57;;;;;;;14.26;100.00;99769.86;1718344;83;21073;-79
2021/08/28 02:46:40;;;;;;;24.63;17.23;;;;;;;14.29;100.00;99763.09;1718249;83;21061;-76
2021/08/28 02:49:09;;;;;;;22.50;15.95;;;;;;;14.35;100.00;99764.03;1718278;83;21639;-78
2021/08/28 02:51:37;;;;;;;24.57;17.30;;;;;;;14.38;100.00;99753.28;1718228;83;21110;-79
2021/08/28 02:54:05;;;;;;;22.87;16.65;;;;;;;14.40;100.00;99758.02;1720763;82;21086;-77
2021/08/28 02:56:31;;;;;;;20.25;15.43;;;;;;;14.42;100.00;99760.55;1748262;82;22116;-77
2021/08/28 02:58:59;;;;;;;20.43;15.25;;;;;;;14.44;100.00;99774.09;1748117;82;21062;-78
2021/08/28 03:01:28;;;;;;;25.08;16.50;;;;;;;14.44;100.00;99767.47;1730448;82;21589;-77
2021/08/28 03:03:55;;;;;;;21.12;15.75;;;;;;;14.47;100.00;99779.23;1717923;83;21145;-76
2021/08/28 03:06:23;;;;;;;25.00;16.97;;;;;;;14.50;100.00;99774.70;1717669;83;21062;-77
2021/08/28 03:08:51;;;;;;;15.93;11.50;;;;;;;14.54;100.00;99770.48;1670435;83;21581;-76
2021/08/28 03:11:18;;;;;;;17.52;13.05;;;;;;;14.59;100.00;99751.66;1718429;83;21126;-77
2021/08/28 03:13:48;;;;;;;22.15;15.40;;;;;;;14.63;100.00;99749.18;1646911;83;21581;-77
2021/08/28 03:16:25;;;;;;;20.05;14.00;;;;;;;14.68;100.00;99753.76;1718347;83;21109;-77
2021/08/28 03:18:54;;;;;;;19.00;14.18;;;;;;;14.73;100.00;99753.00;1719161;83;21102;-76
2021/08/28 03:21:22;;;;;;;23.75;14.63;;;;;;;14.78;100.00;99755.38;1719473;83;21103;-77
2021/08/28 03:23:51;;;;;;;18.80;12.78;;;;;;;14.82;100.00;99761.73;1719628;83;21625;-77
2021/08/28 03:26:20;;;;;;;21.12;14.90;;;;;;;14.85;100.00;99770.81;1691440;83;21015;-76
2021/08/28 03:28:49;;;;;;;28.92;15.05;;;;;;;14.89;100.00;99778.96;1718517;83;21101;-78
2021/08/28 03:31:16;;;;;;;25.35;16.12;;;;;;;14.93;100.00;99761.53;1718047;83;22087;-77
2021/08/28 03:33:45;;;;;;;24.98;15.75;;;;;;;14.95;100.00;99760.97;1718199;83;21083;-77
2021/08/28 03:36:15;;;;;;;23.87;16.85;;;;;;;14.96;100.00;99759.56;1718318;83;21113;-75
2021/08/28 03:38:42;;;;;;;21.57;15.83;;;;;;;14.96;100.00;99760.89;1718331;83;21077;-78
2021/08/28 03:41:09;;;;;;;23.38;16.40;;;;;;;14.99;100.00;99763.82;1717895;83;21182;-78
2021/08/28 03:43:36;;;;;;;22.65;14.45;;;;;;;15.07;100.00;99767.72;1691580;83;21066;-76
2021/08/28 03:46:06;;;;;;;19.12;15.32;;;;;;;15.12;100.00;99774.06;1718528;83;21082;-77
2021/08/28 03:48:34;;;;;;;24.25;16.90;;;;;;;15.27;100.00;99779.72;1689057;83;21094;-79
2021/08/28 03:51:05;;;;;;;18.85;14.50;;;;;;;15.44;100.00;99769.89;1685178;83;21606;-77
2021/08/28 03:53:35;;;;;;;21.30;15.80;;;;;;;15.47;100.00;99759.07;1713298;82;21107;-77
2021/08/28 03:56:05;;;;;;;22.13;16.80;;;;;;;15.43;100.00;99766.36;1710927;82;23219;-78
2021/08/28 03:58:34;;;;;;;25.20;17.10;;;;;;;15.37;100.00;99768.09;1713236;82;21018;-77
2021/08/28 04:01:01;;;;;;;26.45;17.02;;;;;;;15.33;100.00;99769.70;1742359;82;21501;-79
2021/08/28 04:03:29;;;;;;;27.30;16.90;;;;;;;15.28;100.00;99767.34;1742525;81;21038;-77
2021/08/28 04:05:56;;;;;;;23.12;15.88;;;;;;;15.23;100.00;99768.95;1742502;82;21476;-77
2021/08/28 04:08:27;;;;;;;32.58;17.77;;;;;;;15.18;100.00;99763.05;1742587;82;21060;-77
2021/08/28 04:10:53;;;;;;;28.47;18.02;;;;;;;15.17;100.00;99765.34;1742561;82;21026;-79
2021/08/28 04:13:21;;;;;;;25.15;16.48;;;;;;;15.21;100.00;99764.21;1742497;82;21108;-77
2021/08/28 04:15:50;;;;;;;23.22;16.15;;;;;;;15.22;100.00;99768.55;1742349;82;21010;-77
2021/08/28 04:18:19;;;;;;;29.55;17.52;;;;;;;15.24;100.00;99764.01;1741868;82;21493;-78
2021/08/28 04:20:48;;;;;;;29.52;15.98;;;;;;;15.25;100.00;99776.34;1741967;82;21051;-78
2021/08/28 04:23:19;;;;;;;21.35;14.45;;;;;;;15.27;100.00;99778.88;1741200;82;21159;-78
2021/08/28 04:26:04;;;;;;;28.52;18.57;;;;;;;15.27;100.00;99777.07;1742678;82;21706;-77
2021/08/28 04:28:32;;;;;;;32.60;19.00;;;;;;;15.28;100.00;99769.52;1742040;82;21117;-78
2021/08/28 04:30:59;;;;;;;21.35;13.88;;;;;;;15.28;100.00;99778.80;1742553;82;21037;-77
2021/08/28 04:33:27;;;;;;;23.42;16.60;;;;;;;15.25;100.00;99779.00;1742102;82;21078;-78
2021/08/28 04:35:54;;;;;;;26.35;18.62;;;;;;;15.28;100.00;99777.47;1742779;82;21172;-77
2021/08/28 04:38:21;;;;;;;27.98;18.00;;;;;;;15.29;100.00;99776.50;1742584;82;21625;-77
2021/08/28 04:40:50;;;;;;;33.00;19.55;;;;;;;15.30;100.00;99768.94;1742920;82;21070;-77
2021/08/28 04:43:20;;;;;;;24.47;15.18;;;;;;;15.30;100.00;99770.27;1713360;82;21026;-78
2021/08/28 04:46:06;;;;;;;28.12;17.50;;;;;;;15.30;100.00;99764.97;1742866;82;21046;-77
2021/08/28 04:48:35;;;;;;;31.25;20.20;;;;;;;15.33;100.00;99773.69;1743088;81;21010;-77
2021/08/28 04:51:05;;;;;;;25.35;15.48;;;;;;;15.34;100.00;99776.70;1747698;82;21068;-77
2021/08/28 04:53:34;;;;;;;25.72;17.45;;;;;;;15.37;100.00;99768.54;1748242;82;21068;-80
2021/08/28 04:56:00;;;;;;;27.85;17.70;;;;;;;15.39;100.00;99763.99;1721847;82;21114;-78
2021/08/28 04:58:27;;;;;;;23.15;15.90;;;;;;;15.42;100.00;99769.12;1718453;83;21097;-78
2021/08/28 05:01:12;;;;;;;23.45;16.17;;;;;;;15.45;100.00;99767.59;1718593;83;21795;-77
2021/08/28 05:03:55;;;;;;;23.40;15.05;;;;;;;15.49;100.00;99775.75;1703433;83;21077;-77
2021/08/28 05:06:21;;;;;;;19.32;14.03;;;;;;;15.53;100.00;99777.27;1718632;83;21549;-78
2021/08/28 05:08:51;;;;;;;23.35;16.73;;;;;;;15.56;100.00;99774.41;1718499;83;21139;-78
2021/08/28 05:11:19;;;;;;;22.75;13.30;;;;;;;15.59;100.00;99774.20;1718160;83;21009;-77
2021/08/28 05:13:47;;;;;;;26.77;18.02;;;;;;;15.64;100.00;99776.09;1718173;83;21080;-77
2021/08/28 05:16:14;;;;;;;29.65;17.90;;;;;;;15.68;100.00;99781.58;1718141;83;21603;-78
2021/08/28 05:18:41;;;;;;;16.10;12.13;;;;;;;15.71;100.00;99779.23;1718204;83;21104;-76
2021/08/28 05:21:08;;;;;;;29.48;18.65;;;;;;;15.72;100.00;99787.59;1718131;83;21885;-77
2021/08/28 05:23:40;;;;;;;25.97;15.35;;;;;;;15.75;100.00;99789.20;1717990;83;21056;-78
2021/08/28 05:26:08;;;;;;;26.37;17.62;;;;;;;15.73;100.00;99794.59;1718857;83;21099;-78
2021/08/28 05:28:35;;;;;;;24.60;16.57;;;;;;;15.71;100.00;99794.72;1718570;83;21034;-78
2021/08/28 05:31:03;;;;;;;22.60;16.37;;;;;;;15.66;100.00;99788.79;1718778;83;21611;-78
2021/08/28 05:33:31;;;;;;;26.23;18.15;;;;;;;15.63;100.00;99794.30;1718143;83;21148;-78
2021/08/28 05:35:58;;;;;;;25.37;18.12;;;;;;;15.63;100.00;99793.45;1718265;83;21131;-78
2021/08/28 05:38:25;;;;;;;26.42;18.85;;;;;;;15.61;100.00;99804.16;1719260;80;21100;-78
2021/08/28 05:40:52;;;;;;;28.32;19.65;;;;;;;15.59;100.00;99804.73;1720189;83;21350;-77
2021/08/28 05:43:19;;;;;;;26.00;17.15;;;;;;;15.59;100.00;99805.21;1719149;83;21072;-79
2021/08/28 05:45:58;;;;;;;25.92;16.70;;;;;;;15.59;100.00;99807.38;1718540;83;21159;-79
2021/08/28 05:48:25;;;;;;;32.75;19.67;;;;;;;15.60;100.00;99810.43;1718416;83;21062;-77
2021/08/28 05:50:52;;;;;;;27.30;18.67;;;;;;;15.63;100.00;99796.11;1718630;83;21033;-78
2021/08/28 05:53:21;;;;;;;42.65;21.25;;;;;;;15.66;100.00;99798.08;1718639;83;21655;-78
2021/08/28 05:55:47;;;;;;;34.67;20.02;;;;;;;15.72;100.00;99795.56;1742171;82;21532;-78
2021/08/28 05:58:14;;;;;;;36.25;19.42;;;;;;;15.73;100.00;99791.49;1748480;82;21154;-79
2021/08/28 06:00:41;;;;;;;30.70;18.73;;;;;;;15.78;100.00;99794.30;1748283;82;21596;-79
2021/08/28 06:03:08;;;;;;;30.30;17.95;;;;;;;15.79;100.00;99809.30;1748184;82;21030;-78
2021/08/28 06:05:36;;;;;;;31.25;20.35;;;;;;;15.78;100.00;99812.89;1748476;82;21105;-79
2021/08/28 06:08:16;;;;;;;27.25;17.32;;;;;;;15.73;100.00;99806.54;1744589;82;21640;-79
2021/08/28 06:11:02;;;;;;;24.30;14.73;;;;;;;15.67;100.00;99806.44;1748532;82;21332;-78
2021/08/28 06:13:30;;;;;;;24.20;14.50;;;;;;;15.63;100.00;99796.95;1745765;82;21108;-80
2021/08/28 06:15:59;;;;;;;21.75;13.30;;;;;;;15.65;100.00;99796.39;1747158;82;21026;-79
2021/08/28 06:18:27;;;;;;;21.02;14.15;;;;;;;15.63;100.00;99786.83;1748330;82;21085;-78
2021/08/28 06:20:54;;;;;;;24.00;13.80;;;;;;;15.65;100.00;99792.41;1748452;82;21037;-78
2021/08/28 06:23:20;;;;;;;20.57;12.73;;;;;;;15.61;100.00;99798.85;1749076;82;21878;-79
2021/08/28 06:26:06;;;;;;;17.77;13.08;;;;;;;15.61;100.00;99798.85;1749721;82;20982;-77
2021/08/28 06:28:33;;;;;;;21.23;12.80;;;;;;;15.62;100.00;99795.27;1749887;82;21068;-77
2021/08/28 06:31:00;;;;;;;18.77;12.25;;;;;;;15.63;100.00;99787.66;1751987;76;20967;-77
2021/08/28 06:33:29;;;;;;;19.67;12.43;;;;;;;15.67;100.00;99793.16;1752894;79;21077;-78
2021/08/28 06:35:59;;;;;;;19.25;11.65;;;;;;;15.67;100.00;99788.34;1752960;76;20931;-78
2021/08/28 06:38:27;;;;;;;20.02;12.03;;;;;;;15.69;100.00;99795.25;1745828;79;21072;-77
2021/08/28 06:41:14;;;;;;;19.52;12.88;;;;;;;15.72;100.00;99803.52;1693139;84;21059;-77
2021/08/28 06:44:00;;;;;;;16.65;12.47;;;;;;;15.73;100.00;99800.78;1693055;84;21090;-79
2021/08/28 06:46:45;;;;;;;18.73;12.90;;;;;;;15.77;100.00;99796.59;1725956;82;21571;-79
2021/08/28 06:49:31;;;;;;;21.45;13.75;;;;;;;15.80;100.00;99795.06;1742218;82;21564;-79
2021/08/28 06:52:03;;;;;;;16.95;12.65;;;;;;;15.85;100.00;99799.59;1719095;82;21018;-77
2021/08/28 06:54:31;;;;;;;20.85;14.65;;;;;;;15.92;100.00;99808.90;1717775;82;21089;-79
2021/08/28 06:57:11;;;;;;;20.00;12.15;;;;;;;15.95;100.00;99810.02;1717347;82;20995;-77
2021/08/28 06:59:50;;;;;;;25.32;16.45;;;;;;;15.99;100.00;99816.84;1732157;82;21061;-79
2021/08/28 07:02:38;;;;;;;22.48;15.72;;;;;;;16.01;100.00;99814.95;1734151;82;21596;-79
2021/08/28 07:05:08;;;;;;;21.00;15.32;;;;;;;16.04;100.00;99820.05;1734092;82;21117;-78
2021/08/28 07:07:36;;;;;;;;;;;;;;;16.07;100.00;99814.53;1736269;82;21557;-79
2021/08/28 07:10:04;;;;;;;21.17;13.55;;;;;;;16.14;100.00;99829.11;1734083;82;20211;-78
2021/08/28 07:12:31;;;;;;;18.05;13.60;;;;;;;16.22;100.00;99819.78;1713490;82;21576;-79
2021/08/28 07:14:58;;;;;;;17.70;12.50;;;;;;;16.33;100.00;99823.47;1734314;82;21508;-79
2021/08/28 07:17:26;;;;;;;17.67;12.18;;;;;;;16.50;100.00;99825.00;1731285;82;21149;-79
2021/08/28 07:19:53;;;;;;;17.57;12.47;;;;;;;16.69;100.00;99827.77;1734197;82;21577;-77
2021/08/28 07:22:20;;;;;;;21.62;12.05;;;;;;;16.90;100.00;99822.34;1734443;82;21490;-79
2021/08/28 07:24:47;;;;;;;23.60;13.18;;;;;;;17.18;100.00;99828.42;1734378;82;21732;-78
2021/08/28 07:27:17;;;;;;;17.30;11.40;;;;;;;17.40;99.35;99825.98;1734934;81;21423;-78
2021/08/28 07:29:54;;;;;;;12.88;9.83;;;;;;;17.58;97.74;99828.31;1695359;84;21634;-79
2021/08/28 07:32:22;;;;;;;15.20;9.83;;;;;;;17.76;95.95;99836.32;1734309;82;21113;-79
2021/08/28 07:34:50;;;;;;;20.82;10.43;;;;;;;18.17;94.36;99831.14;1734087;82;21042;-78
2021/08/28 07:37:18;;;;;;;15.55;11.73;;;;;;;18.68;91.11;99838.53;1734616;82;21026;-75
2021/08/28 07:39:45;;;;;;;16.60;8.98;;;;;;;19.25;89.35;99829.24;1734084;82;21110;-76
2021/08/28 07:42:12;;;;;;;15.98;8.85;;;;;;;19.92;85.00;99824.89;1734538;82;21065;-77
2021/08/28 07:44:41;;;;;;;11.35;9.23;;;;;;;20.49;80.13;99832.28;1734016;82;21533;-80
2021/08/28 07:47:08;;;;;;;11.68;8.08;;;;;;;20.91;80.05;99829.67;1734324;82;21101;-79
2021/08/28 07:49:35;;;;;;;15.68;8.70;;;;;;;21.12;77.41;99829.20;1734322;81;21081;-79
2021/08/28 07:52:03;;;;;;;14.90;8.73;;;;;;;21.24;75.64;99834.48;1735297;82;21505;-77
2021/08/28 07:54:30;;;;;;;12.70;8.60;;;;;;;21.37;74.14;99832.41;1734141;82;21553;-78
2021/08/28 07:56:59;;;;;;;12.70;8.33;;;;;;;21.30;72.45;99841.96;1735543;82;20971;-78
2021/08/28 07:59:26;;;;;;;12.40;7.72;;;;;;;21.34;72.37;99844.24;1736730;82;21433;-77
2021/08/28 08:01:55;;;;;;;11.75;7.60;;;;;;;21.48;72.01;99845.75;1735065;82;21061;-77
2021/08/28 08:04:22;;;;;;;11.88;7.85;;;;;;;21.90;69.37;99849.69;1734278;82;21556;-77
2021/08/28 08:07:08;;;;;;;9.63;6.70;;;;;;;22.15;67.33;99846.13;1734197;82;21137;-78
2021/08/28 08:09:35;;;;;;;12.10;8.00;;;;;;;22.30;66.38;99847.47;1712800;82;21056;-77
2021/08/28 08:12:03;;;;;;;15.43;7.30;;;;;;;22.33;66.64;99856.56;1734210;82;21038;-77
2021/08/28 08:14:46;;;;;;;11.78;6.45;;;;;;;22.31;66.73;99847.80;1731451;82;21530;-79
2021/08/28 08:17:19;;;;;;;10.40;7.05;;;;;;;22.36;64.97;99852.28;1731169;82;21155;-78
2021/08/28 08:19:52;;;;;;;11.78;7.00;;;;;;;22.77;64.69;99851.64;1734227;82;21026;-78
2021/08/28 08:22:37;;;;;;;11.48;7.22;;;;;;;23.04;63.70;99850.11;1734371;82;21205;-79
2021/08/28 08:25:12;;;;;;;14.15;7.47;;;;;;;23.08;62.43;99850.68;1732376;82;21074;-78
2021/08/28 08:27:46;;;;;;;15.45;7.42;;;;;;;22.94;62.01;99854.63;1696949;82;21391;-77
2021/08/28 08:30:20;;;;;;;9.35;5.80;;;;;;;23.04;62.32;99852.79;1732230;82;21509;-77
2021/08/28 08:32:57;;;;;;;9.15;5.87;;;;;;;23.33;60.81;99847.84;1732755;82;21053;-78
2021/08/28 08:35:25;;;;;;;9.03;6.40;;;;;;;23.64;60.43;99847.95;1734054;82;21027;-79
2021/08/28 08:37:57;;;;;;;8.70;5.60;;;;;;;23.98;58.47;99848.75;1734427;82;21533;-79
2021/08/28 08:40:23;;;;;;;9.85;5.80;;;;;;;24.18;57.88;99848.62;1734000;82;21074;-78
2021/08/28 08:42:50;;;;;;;7.47;5.33;;;;;;;24.20;56.80;99852.01;1691049;82;21479;-79
2021/08/28 08:45:19;;;;;;;10.35;5.90;;;;;;;24.00;56.98;99857.52;1713703;82;21093;-79
2021/08/28 08:47:46;;;;;;;9.68;5.70;;;;;;;23.88;57.40;99856.03;1734752;82;21160;-78
2021/08/28 08:50:14;;;;;;;7.97;5.33;;;;;;;23.95;57.21;99854.44;1734368;81;21316;-76
2021/08/28 08:52:44;;;;;;;9.60;5.30;;;;;;;24.16;54.65;99856.86;1734504;82;21003;-77
2021/08/28 08:55:32;;;;;;;7.87;4.25;;;;;;;24.51;54.14;99861.13;1714593;82;21147;-77
2021/08/28 08:57:59;;;;;;;6.92;3.52;;;;;;;24.72;52.21;99861.66;1705401;84;21050;-77
2021/08/28 09:00:27;;;;;;;7.92;3.83;;;;;;;24.51;51.74;99862.47;1704941;83;21073;-78
2021/08/28 09:02:58;;;;;;;6.87;3.95;;;;;;;24.38;52.08;99869.02;1701440;84;21018;-76
2021/08/28 09:05:26;;;;;;;4.17;3.08;;;;;;;24.48;51.92;99869.85;1704471;83;21046;-77
2021/08/28 09:07:55;;;;;;;5.12;3.85;;;;;;;24.46;51.83;99871.81;1685352;84;21074;-77
2021/08/28 09:10:21;;;;;;;6.35;3.35;;;;;;;24.54;51.74;99868.38;1704648;84;21097;-77
2021/08/28 09:12:50;;;;;;;12.65;4.15;;;;;;;24.57;51.99;99869.91;1705442;84;21007;-79
2021/08/28 09:15:16;;;;;;;4.80;3.50;;;;;;;24.42;52.11;99872.27;1705122;84;21049;-79
2021/08/28 09:17:45;;;;;;;5.25;3.17;;;;;;;23.92;52.30;99876.23;1704842;84;21073;-78
2021/08/28 09:20:23;;;;;;;3.87;3.30;;;;;;;23.69;53.03;99891.02;1704822;84;21125;-77
2021/08/28 09:22:52;;;;;;;6.80;3.30;;;;;;;24.00;53.83;99881.72;1704956;84;21002;-78
2021/08/28 09:25:23;;;;;;;7.17;3.12;;;;;;;24.45;51.69;99869.27;1704796;84;21102;-78
2021/08/28 09:27:50;;;;;;;;;;;;;;;24.40;50.30;99886.37;1707507;84;21003;-79
2021/08/28 09:30:31;;;;;;;4.37;3.25;;;;;;;24.70;50.52;99889.23;1704893;84;20510;-78
2021/08/28 09:33:01;;;;;;;7.25;2.72;;;;;;;24.87;49.90;99893.78;1705307;84;21090;-78
2021/08/28 09:35:31;;;;;;;8.68;3.55;;;;;;;24.96;49.23;99881.72;1704641;84;21049;-77
2021/08/28 09:38:02;;;;;;;5.78;2.70;;;;;;;24.69;49.09;99895.63;1705221;84;21105;-78
2021/08/28 09:40:33;;;;;;;5.33;2.47;;;;;;;24.69;48.86;99899.16;1703854;84;21022;-79
2021/08/28 09:43:03;;;;;;;4.87;2.90;;;;;;;24.74;48.55;99898.70;1704966;83;21057;-77
2021/08/28 09:45:34;;;;;;;16.60;3.30;;;;;;;24.92;49.37;99897.36;1704666;83;21155;-76
2021/08/28 09:48:00;;;;;;;4.92;2.10;;;;;;;25.43;47.96;99903.00;1705370;84;21015;-79
2021/08/28 09:50:35;;;;;;;3.65;2.47;;;;;;;25.70;46.39;99897.95;1705076;83;21624;-78
2021/08/28 09:53:06;;;;;;;7.50;5.55;;;;;;;25.37;46.96;99906.31;1705078;84;21078;-77
2021/08/28 09:55:33;;;;;;;;;;;;;;;25.03;46.36;99919.14;1727393;82;21113;-77
2021/08/28 09:58:00;;;;;;;2.52;2.20;;;;;;;25.07;46.25;99915.15;1734418;82;22256;-78
2021/08/28 10:00:30;;;;;;;4.47;2.92;;;;;;;25.30;46.11;99913.67;1734232;82;21093;-78
2021/08/28 10:03:04;;;;;;;2.62;2.20;;;;;;;25.67;44.91;99913.92;1734436;82;21031;-77
2021/08/28 10:05:37;;;;;;;2.20;1.85;;;;;;;25.73;44.05;99921.38;1734358;82;21051;-79
2021/08/28 10:08:07;;;;;;;2.58;1.90;;;;;;;25.63;43.35;99917.96;1734542;82;21007;-78
2021/08/28 10:10:36;;;;;;;4.62;2.17;;;;;;;25.66;43.06;99921.68;1734456;82;21513;-77
2021/08/28 10:13:04;;;;;;;10.40;3.10;;;;;;;25.70;44.40;99921.71;1734877;82;21707;-77
2021/08/28 10:15:33;;;;;;;5.28;1.82;;;;;;;25.91;44.13;99919.16;1736094;82;21019;-77
2021/08/28 10:18:02;;;;;;;2.55;2.10;;;;;;;26.23;43.70;99923.85;1735827;81;21101;-78
2021/08/28 10:20:28;;;;;;;12.07;2.45;;;;;;;26.53;43.65;99927.82;1735188;82;21092;-77
2021/08/28 10:22:58;;;;;;;3.98;1.87;;;;;;;27.00;41.86;99919.13;1734913;82;21206;-77
2021/08/28 10:25:26;;;;;;;2.90;1.80;;;;;;;27.16;40.74;99923.70;1734868;82;21097;-79
2021/08/28 10:27:54;;;;;;;3.45;2.00;;;;;;;27.14;40.29;99928.42;1736351;82;21038;-77
2021/08/28 10:30:24;;;;;;;2.60;2.02;;;;;;;26.97;40.08;99929.45;1737163;82;20991;-77
2021/08/28 10:32:52;;;;;;;3.55;2.90;;;;;;;26.57;41.09;99933.27;1737369;82;21070;-77
2021/08/28 10:35:21;;;;;;;10.90;4.75;;;;;;;26.17;41.47;99936.64;1737766;82;21041;-77
2021/08/28 10:37:48;;;;;;;9.08;5.70;;;;;;;26.09;42.85;99936.11;1737534;82;21116;-80
2021/08/28 10:40:25;;;;;;;7.30;2.40;;;;;;;25.91;42.74;99946.13;1737838;82;21007;-78
2021/08/28 11:06:20;;;;;;;1.55;1.30;;;;;;;28.27;36.76;99951.08;1804372;78;23359;-77
2021/08/28 11:09:00;;;;;;;4.53;1.45;;;;;;;28.22;36.29;99957.86;1827821;78;21064;-79
2021/08/28 11:11:36;;;;;;;2.50;1.72;;;;;;;28.05;37.63;99958.95;1810662;79;21120;-77
2021/08/28 11:14:11;;;;;;;3.10;1.85;;;;;;;27.86;37.80;99960.69;1810149;79;21103;-77
2021/08/28 11:16:48;;;;;;;1.60;1.50;;;;;;;27.56;38.46;99963.07;1809456;79;21053;-78
2021/08/28 11:19:32;;;;;;;2.85;1.82;;;;;;;27.19;39.17;99966.62;1809906;79;21617;-78
2021/08/28 11:21:59;;;;;;;2.22;1.52;;;;;;;27.13;39.71;99967.80;1818695;78;21087;-78
2021/08/28 11:24:27;;;;;;;2.33;1.60;;;;;;;27.16;39.43;99968.81;1819160;78;21747;-76
2021/08/28 11:26:56;;;;;;;3.00;1.82;;;;;;;27.30;39.42;99968.16;1818974;78;20945;-76
2021/08/28 11:29:25;;;;;;;2.25;1.70;;;;;;;27.24;39.06;99966.16;1819473;78;20953;-76
2021/08/28 11:32:12;;;;;;;4.90;1.90;;;;;;;27.09;38.69;99955.63;1819112;78;21079;-78
2021/08/28 11:34:42;;;;;;;1.98;1.70;;;;;;;26.78;39.86;99952.23;1819374;78;21574;-77
2021/08/28 11:37:34;;;;;;;3.15;1.80;;;;;;;26.79;40.71;99951.20;1818896;78;21207;-76
2021/08/28 11:40:24;;;;;;;2.87;1.50;;;;;;;26.77;39.63;99950.52;1818926;78;21570;-76
2021/08/28 11:42:50;;;;;;;6.97;1.70;;;;;;;26.65;38.82;99947.29;1818739;78;21041;-76
2021/08/28 11:45:18;;;;;;;4.70;1.87;;;;;;;26.20;41.10;99948.45;1819110;78;21056;-77
2021/08/28 11:47:44;;;;;;;5.12;1.62;;;;;;;26.05;41.57;99956.32;1818897;78;21028;-76
2021/08/28 11:50:11;;;;;;;3.22;1.77;;;;;;;26.22;41.53;99952.34;1819089;78;21069;-77
2021/08/28 11:52:39;;;;;;;3.33;1.47;;;;;;;26.53;41.64;99965.63;1818649;78;21068;-77
2021/08/28 11:55:07;;;;;;;2.35;1.30;;;;;;;26.66;41.00;99965.17;1812757;78;21029;-78
2021/08/28 11:57:35;;;;;;;4.17;1.75;;;;;;;26.81;40.36;99954.58;1825149;78;21051;-77